»·PEaware :: N434EP KOTH-KEUG

N434EP :: KOTH-KEUG

FLIGHT INFORMATION

Flight Status: Arrived
Operator: Privately registered:
United States
More flights under this callsign
Pilot: Drew H. (3199)
Aircraft: CESSNA 172 SKYHAWK
(C172)
More flights by this aircraft type
Origin: KOTH North Bend Mun
United States
Destination: KEUG Mahlon Sweet
United States
More flights between these airports :: More routes between these airports
Route: +OTH6 OTH V121 EUG
File this flight plan on PilotEdge
Remarks:
Altitude:
(Current/Filed)
7,000ft
Speed:
(Current/Filed)
120kts
Departed: 30-Nov-17 01:05 PM
Arrived: 30-Nov-17 01:57 PM
Distance/Time
Traveled:
61nm/0:52
Distance/Time
To Go:
Arrived

Flight Plot

Page will automatically refresh every two minutes.

Flight plan parsing failed; only flown route is shown


Map Options




Map Legend


Flown Route
Filed Route
Departure Airport
Arrival Airport
Navaid (VOR, NDB)
Fix

Horizontal Profiles

Position Reports

Time Latitude Longitude Heading Altitude Ground
Speed
30-Nov-17 12:53 43.415423 -124.245433 332 21ft 0kts
30-Nov-17 12:54 43.415423 -124.245433 332 21ft 0kts
30-Nov-17 12:55 43.415423 -124.245433 332 21ft 0kts
30-Nov-17 12:56 43.415423 -124.245433 332 21ft 0kts
30-Nov-17 12:57 43.415423 -124.245433 332 21ft 0kts
30-Nov-17 12:58 43.415423 -124.245433 332 21ft 0kts
30-Nov-17 12:59 43.415423 -124.245433 332 21ft 0kts
30-Nov-17 13:00 43.415423 -124.245433 332 21ft 0kts
30-Nov-17 13:01 43.415423 -124.245433 332 21ft 0kts
30-Nov-17 13:02 43.415423 -124.245433 332 21ft 0kts
30-Nov-17 13:03 43.415423 -124.245433 332 21ft 0kts
30-Nov-17 13:04 43.415423 -124.245433 332 21ft 0kts
30-Nov-17 13:05 43.415423 -124.245433 332 21ft 0kts
30-Nov-17 13:06 43.415493 -124.245487 329 21ft 0kts
30-Nov-17 13:07 43.415492 -124.245487 329 21ft 0kts
30-Nov-17 13:08 43.418481 -124.246594 331 21ft 21kts
30-Nov-17 13:09 43.418691 -124.245311 151 21ft 37kts
30-Nov-17 13:10 43.410892 -124.252806 292 904ft 73kts
30-Nov-17 13:11 43.421514 -124.278405 36 1805ft 91kts
30-Nov-17 13:12 43.421453 -124.247332 104 2733ft 84kts
30-Nov-17 13:13 43.418622 -124.214652 106 3456ft 87kts
30-Nov-17 13:14 43.413614 -124.181798 105 4165ft 89kts
30-Nov-17 13:15 43.420264 -124.150385 35 4821ft 103kts
30-Nov-17 13:16 43.444302 -124.127553 37 5356ft 107kts
30-Nov-17 13:17 43.466306 -124.100347 50 5831ft 109kts
30-Nov-17 13:18 43.487489 -124.070295 45 6320ft 111kts
30-Nov-17 13:19 43.510238 -124.041243 44 6752ft 113kts
30-Nov-17 13:20 43.533399 -124.011075 34 7009ft 121kts
30-Nov-17 13:21 43.556921 -123.987828 35 7000ft 125kts
30-Nov-17 13:22 43.580866 -123.944467 56 6998ft 120kts
30-Nov-17 13:23 43.604889 -123.912779 44 6998ft 119kts
30-Nov-17 13:24 43.628823 -123.881935 44 6997ft 116kts
30-Nov-17 13:25 43.648421 -123.856657 44 6999ft 115kts
30-Nov-17 13:26 43.671782 -123.826688 44 6998ft 113kts
30-Nov-17 13:27 43.694804 -123.798283 44 7001ft 110kts
30-Nov-17 13:28 43.721546 -123.765449 48 7004ft 110kts
30-Nov-17 13:29 43.740334 -123.740915 47 7004ft 112kts
30-Nov-17 13:30 43.763044 -123.710796 48 7004ft 114kts
30-Nov-17 13:31 43.785780 -123.679662 48 7004ft 116kts
30-Nov-17 13:32 43.808577 -123.647626 48 7004ft 118kts
30-Nov-17 13:33 43.831437 -123.614231 48 7001ft 120kts
30-Nov-17 13:34 43.853820 -123.580065 48 7002ft 120kts
30-Nov-17 13:35 43.877804 -123.548380 39 7003ft 121kts
30-Nov-17 13:36 43.903857 -123.518020 39 7003ft 123kts
30-Nov-17 13:37 43.929902 -123.486579 41 7003ft 124kts
30-Nov-17 13:38 43.955790 -123.454462 41 7003ft 126kts
30-Nov-17 13:39 43.982074 -123.421839 41 7003ft 127kts
30-Nov-17 13:40 44.007119 -123.386831 45 7003ft 128kts
30-Nov-17 13:41 44.032136 -123.351716 45 7002ft 127kts
30-Nov-17 13:42 44.059015 -123.321715 355 6999ft 123kts
30-Nov-17 13:43 44.093385 -123.319547 357 7001ft 124kts
30-Nov-17 13:44 44.126061 -123.317576 357 6997ft 123kts
30-Nov-17 13:45 44.160250 -123.314941 358 6787ft 124kts
30-Nov-17 13:46 44.193724 -123.312832 359 6334ft 120kts
30-Nov-17 13:47 44.227121 -123.311393 359 5776ft 120kts
30-Nov-17 13:48 44.260375 -123.310434 355 5045ft 120kts
30-Nov-17 13:49 44.292825 -123.310963 356 4290ft 114kts
30-Nov-17 13:50 44.324146 -123.310624 28 3378ft 114kts
30-Nov-17 13:51 44.333312 -123.274514 83 2803ft 102kts
30-Nov-17 13:52 44.335380 -123.235966 131 2779ft 99kts
30-Nov-17 13:53 44.312153 -123.222574 187 2788ft 92kts
30-Nov-17 13:54 44.286814 -123.221549 184 2773ft 92kts
30-Nov-17 13:55 44.261293 -123.221940 174 2777ft 91kts
30-Nov-17 13:56 44.235018 -123.220923 181 2373ft 99kts
30-Nov-17 13:57 44.209159 -123.220233 179 1835ft 85kts
30-Nov-17 13:58 44.189263 -123.220135 180 1425ft 66kts
30-Nov-17 13:59 44.171061 -123.219773 176 1080ft 64kts
30-Nov-17 14:00 44.153240 -123.219431 178 753ft 64kts
30-Nov-17 14:01 44.136413 -123.219196 179 437ft 53kts
30-Nov-17 14:02 44.129173 -123.217136 172 378ft 15kts
30-Nov-17 14:03 44.123562 -123.216285 150 378ft 23kts
30-Nov-17 14:04 44.118737 -123.215332 142 378ft 16kts
30-Nov-17 14:05 44.117819 -123.215249 212 378ft 0kts
30-Nov-17 14:06 44.117819 -123.215248 213 378ft 0kts
30-Nov-17 14:07 44.117819 -123.215248 213 378ft 0kts
30-Nov-17 14:08 44.117819 -123.215248 213 378ft 0kts
30-Nov-17 14:09 44.117819 -123.215248 213 378ft 0kts
30-Nov-17 14:10 44.117819 -123.215248 213 378ft 0kts
30-Nov-17 14:11 44.117819 -123.215248 213 378ft 0kts
30-Nov-17 14:12 44.117819 -123.215248 213 378ft 0kts
30-Nov-17 14:13 44.117819 -123.215248 213 378ft 0kts
30-Nov-17 14:14 44.117819 -123.215248 213 378ft 0kts
30-Nov-17 14:15 44.117819 -123.215248 213 378ft 0kts
30-Nov-17 14:16 44.117819 -123.215248 213 378ft 0kts

Navigation Log

Ident Type
Flight plan parsing failed, navigation log unavailable